Time;durP1;ratioP1;P1;durP2;ratioP2;P2;SDS_P1;SDS_P2;PMS_P1;PMS_P2;Temp;Humidity;BMP_temperature;BMP_pressure;BME280_temperature;BME280_humidity;BME280_pressure;Samples;Min_cycle;Max_cycle;Signal;HPM_P1;HPM_P2
2021/04/22 00:02:04;;;;;;;2.88;2.42;;;13.10;96.70;;;;;;4944302;28;20416;-77
2021/04/22 00:04:33;;;;;;;3.25;2.60;;;13.10;96.70;;;;;;4950803;28;20153;-77
2021/04/22 00:07:01;;;;;;;3.38;2.60;;;13.10;96.70;;;;;;4947642;28;20497;-77
2021/04/22 00:09:29;;;;;;;4.15;2.40;;;13.20;96.70;;;;;;4928374;29;20185;-77
2021/04/22 00:11:56;;;;;;;3.05;2.70;;;13.20;96.70;;;;;;4946998;28;20051;-77
2021/04/22 00:14:24;;;;;;;3.47;2.58;;;13.10;96.70;;;;;;4947571;28;20046;-77
2021/04/22 00:16:52;;;;;;;3.17;2.65;;;13.10;96.70;;;;;;4928353;29;20043;-77
2021/04/22 00:19:20;;;;;;;3.35;2.92;;;13.10;96.70;;;;;;4945671;28;20587;-77
2021/04/22 00:21:48;;;;;;;2.65;2.30;;;13.10;96.70;;;;;;4943521;28;20146;-77
2021/04/22 00:24:16;;;;;;;3.63;2.38;;;13.10;96.70;;;;;;4927636;29;20537;-77
2021/04/22 00:26:44;;;;;;;3.50;3.05;;;13.10;96.70;;;;;;4947548;28;20053;-77
2021/04/22 00:29:11;;;;;;;2.88;2.58;;;13.10;96.70;;;;;;4950889;28;20058;-76
2021/04/22 00:31:39;;;;;;;3.15;2.25;;;13.10;96.70;;;;;;4947359;28;20046;-77
2021/04/22 00:34:07;;;;;;;2.95;2.60;;;13.10;96.70;;;;;;4945897;28;20050;-77
2021/04/22 00:36:34;;;;;;;2.80;2.60;;;13.00;96.70;;;;;;4945303;28;20057;-77
2021/04/22 00:39:04;;;;;;;3.35;2.83;;;13.00;96.70;;;;;;4950987;28;20416;-77
2021/04/22 00:41:32;;;;;;;3.53;2.47;;;12.90;96.70;;;;;;4928809;29;20044;-77
2021/04/22 00:44:00;;;;;;;3.22;2.60;;;13.00;96.70;;;;;;4933709;28;20569;-77
2021/04/22 00:46:28;;;;;;;3.17;2.47;;;12.90;96.70;;;;;;4943326;28;20042;-77
2021/04/22 00:48:56;;;;;;;2.70;2.47;;;12.80;96.70;;;;;;4947070;28;20043;-78
2021/04/22 00:51:24;;;;;;;3.05;2.75;;;12.80;96.70;;;;;;4944450;28;20043;-77
2021/04/22 00:53:52;;;;;;;3.50;2.88;;;12.70;96.70;;;;;;4931036;28;20054;-77
2021/04/22 00:56:22;;;;;;;3.55;2.65;;;12.70;96.70;;;;;;4941651;28;20054;-77
2021/04/22 00:58:50;;;;;;;3.72;3.03;;;12.60;96.70;;;;;;4962818;28;20051;-77
2021/04/22 01:01:17;;;;;;;2.75;2.53;;;12.60;96.70;;;;;;4973733;28;20034;-77
2021/04/22 01:03:45;;;;;;;3.10;2.80;;;12.70;96.70;;;;;;4963355;28;20046;-77
2021/04/22 01:06:13;;;;;;;3.00;2.70;;;12.80;96.70;;;;;;4971772;28;20046;-76
2021/04/22 01:08:41;;;;;;;3.35;2.58;;;12.80;96.70;;;;;;4962167;28;20047;-77
2021/04/22 01:11:09;;;;;;;2.90;2.58;;;12.80;96.70;;;;;;4967188;28;20523;-77
2021/04/22 01:13:38;;;;;;;2.70;2.25;;;12.80;96.70;;;;;;4967825;28;20050;-77
2021/04/22 01:16:06;;;;;;;3.40;2.90;;;12.80;96.70;;;;;;4967911;28;20066;-77
2021/04/22 01:18:34;;;;;;;3.78;2.65;;;12.80;96.70;;;;;;4964314;28;20169;-77
2021/04/22 01:21:04;;;;;;;2.97;2.50;;;12.80;96.70;;;;;;4976047;28;20049;-77
2021/04/22 01:23:33;;;;;;;3.20;2.80;;;12.80;96.70;;;;;;4955604;28;20658;-77
2021/04/22 01:26:00;;;;;;;3.63;2.40;;;12.80;96.70;;;;;;4966833;28;20046;-77
2021/04/22 01:28:28;;;;;;;2.58;2.05;;;12.80;96.70;;;;;;4957487;28;20184;-77
2021/04/22 01:30:56;;;;;;;2.53;2.20;;;12.90;96.70;;;;;;4974487;28;20328;-77
2021/04/22 01:33:27;;;;;;;3.28;2.35;;;12.80;96.70;;;;;;4941526;28;20051;-77
2021/04/22 01:35:58;;;;;;;3.15;2.30;;;12.80;96.70;;;;;;4968163;28;20042;-77
2021/04/22 01:38:26;;;;;;;3.92;2.60;;;12.80;96.70;;;;;;4959791;28;20106;-77
2021/04/22 01:40:56;;;;;;;3.17;2.03;;;12.80;96.70;;;;;;4963220;28;20042;-77
2021/04/22 01:43:26;;;;;;;2.60;2.10;;;12.80;96.70;;;;;;4957842;28;20043;-77
2021/04/22 01:45:56;;;;;;;3.72;2.42;;;12.80;96.70;;;;;;4961661;28;20049;-77
2021/04/22 01:48:27;;;;;;;3.38;2.08;;;12.80;96.70;;;;;;4965432;28;20567;-77
2021/04/22 01:50:56;;;;;;;4.63;2.45;;;12.80;96.70;;;;;;4968795;28;20096;-77
2021/04/22 01:53:26;;;;;;;3.03;2.65;;;12.80;96.70;;;;;;4963116;28;20039;-77
2021/04/22 01:59:33;;;;;;;2.58;2.38;;;12.70;96.70;;;;;;4970603;28;20905;-77
2021/04/22 02:02:01;;;;;;;3.35;2.97;;;12.80;96.70;;;;;;4961682;28;20046;-77
2021/04/22 02:04:29;;;;;;;3.85;2.65;;;12.70;96.70;;;;;;4970603;28;20046;-77
2021/04/22 02:06:57;;;;;;;3.35;2.65;;;12.60;96.70;;;;;;4969544;28;20057;-77
2021/04/22 02:09:26;;;;;;;3.05;2.60;;;12.50;96.70;;;;;;4974006;28;20058;-77
2021/04/22 02:15:43;;;;;;;3.20;2.90;;;12.60;96.70;;;;;;4963430;28;20039;-77
2021/04/22 02:18:11;;;;;;;3.25;2.95;;;12.60;96.70;;;;;;4970160;28;20081;-77
2021/04/22 02:20:40;;;;;;;3.10;2.80;;;12.70;96.70;;;;;;4962874;28;20527;-77
2021/04/22 02:23:12;;;;;;;2.85;2.58;;;12.80;96.70;;;;;;4965633;28;20050;-77
2021/04/22 02:25:40;;;;;;;4.78;2.88;;;12.70;96.70;;;;;;4958499;28;20547;-77
2021/04/22 02:28:08;;;;;;;4.43;2.97;;;12.60;96.70;;;;;;4973860;28;20081;-77
2021/04/22 02:30:37;;;;;;;4.65;2.88;;;12.60;96.70;;;;;;4944507;28;20511;-77
2021/04/22 02:33:09;;;;;;;4.80;3.03;;;12.70;96.70;;;;;;4972115;28;20538;-77
2021/04/22 02:36:08;;;;;;;3.17;2.88;;;12.70;96.70;;;;;;4961024;28;20137;-77
2021/04/22 02:38:35;;;;;;;3.15;2.53;;;12.70;96.70;;;;;;4988123;28;20655;-77
2021/04/22 02:41:28;;;;;;;2.83;2.53;;;12.60;96.70;;;;;;4970723;28;20043;-77
2021/04/22 02:43:55;;;;;;;4.78;3.13;;;12.70;96.70;;;;;;4990742;28;20051;-77
2021/04/22 02:46:23;;;;;;;4.05;2.58;;;12.70;96.70;;;;;;4973300;28;20042;-77
2021/04/22 02:48:52;;;;;;;2.95;2.50;;;12.80;96.70;;;;;;4948983;28;20047;-77
2021/04/22 02:51:57;;;;;;;3.63;2.58;;;12.70;96.70;;;;;;4952014;28;20047;-77
2021/04/22 02:54:24;;;;;;;3.42;1.95;;;12.60;96.70;;;;;;4962976;28;20578;-77
2021/04/22 02:56:52;;;;;;;2.67;2.22;;;12.40;96.70;;;;;;4954127;28;20074;-77
2021/04/22 02:59:21;;;;;;;4.78;2.72;;;12.30;96.70;;;;;;4977131;28;20054;-77
2021/04/22 03:01:49;;;;;;;2.83;2.42;;;12.20;96.70;;;;;;4979628;28;20049;-77
2021/04/22 03:04:18;;;;;;;2.85;2.38;;;12.30;96.70;;;;;;4974124;28;20387;-77
2021/04/22 03:06:47;;;;;;;3.03;2.50;;;12.40;96.70;;;;;;4979932;28;20062;-77
2021/04/22 03:09:16;;;;;;;4.75;2.50;;;12.40;96.70;;;;;;4964217;28;20073;-77
2021/04/22 03:11:44;;;;;;;2.78;2.47;;;12.40;96.70;;;;;;4973574;28;20093;-77
2021/04/22 03:14:12;;;;;;;3.20;2.38;;;12.40;96.70;;;;;;4972717;28;20452;-77
2021/04/22 03:16:40;;;;;;;3.22;2.00;;;12.50;96.70;;;;;;4967428;28;20038;-77
2021/04/22 03:19:10;;;;;;;4.10;2.25;;;12.40;96.70;;;;;;4967105;28;20106;-77
2021/04/22 03:21:40;;;;;;;2.33;1.70;;;12.40;96.70;;;;;;4976677;28;20150;-77
2021/04/22 03:24:11;;;;;;;2.63;2.30;;;12.40;96.70;;;;;;4945708;28;20050;-77
2021/04/22 03:26:40;;;;;;;2.60;1.85;;;12.50;96.70;;;;;;4972022;28;20116;-77
2021/04/22 03:29:07;;;;;;;2.17;1.98;;;12.20;96.70;;;;;;4963466;28;20413;-77
2021/04/22 03:31:35;;;;;;;2.92;2.13;;;12.10;96.70;;;;;;4965237;28;20070;-77
2021/04/22 03:34:03;;;;;;;2.13;1.92;;;12.10;96.70;;;;;;4946568;28;20432;-77
2021/04/22 03:36:32;;;;;;;3.67;2.10;;;12.20;96.70;;;;;;4940534;28;20566;-77
2021/04/22 03:39:05;;;;;;;2.15;1.85;;;12.20;96.70;;;;;;4949906;28;20121;-77
2021/04/22 03:41:35;;;;;;;2.85;2.20;;;12.00;96.70;;;;;;4978721;28;20397;-77
2021/04/22 03:44:05;;;;;;;2.15;1.60;;;11.90;96.70;;;;;;4973157;28;20533;-77
2021/04/22 03:46:35;;;;;;;6.68;2.03;;;12.00;96.70;;;;;;4970748;28;20046;-77
2021/04/22 03:49:06;;;;;;;1.90;1.80;;;12.00;96.70;;;;;;4947639;28;20579;-77
2021/04/22 03:51:36;;;;;;;1.92;1.77;;;12.10;96.70;;;;;;4976819;28;20078;-77
2021/04/22 03:54:07;;;;;;;1.98;1.77;;;12.20;96.70;;;;;;4976452;28;20042;-77
2021/04/22 03:56:37;;;;;;;2.00;1.80;;;12.40;96.70;;;;;;4955931;28;20082;-77
2021/04/22 03:59:06;;;;;;;2.42;2.20;;;12.40;96.70;;;;;;4950597;28;20049;-77
2021/04/22 04:01:43;;;;;;;2.03;1.80;;;12.40;96.70;;;;;;4935429;28;20263;-77
2021/04/22 04:04:22;;;;;;;3.25;1.58;;;12.30;96.70;;;;;;4948097;28;20110;-77
2021/04/22 04:07:03;;;;;;;3.13;1.83;;;12.40;96.70;;;;;;4930437;28;20212;-77
2021/04/22 04:09:39;;;;;;;2.38;1.90;;;12.40;96.70;;;;;;4947021;28;20055;-77
2021/04/22 04:12:10;;;;;;;3.72;1.88;;;12.40;96.70;;;;;;4943005;28;20054;-77
2021/04/22 04:14:39;;;;;;;1.63;1.52;;;12.40;96.70;;;;;;4951022;28;20366;-77
2021/04/22 04:17:08;;;;;;;3.55;2.00;;;12.50;96.70;;;;;;4929399;28;20075;-77
2021/04/22 04:19:38;;;;;;;3.05;1.77;;;12.40;96.70;;;;;;4951285;28;20043;-76
2021/04/22 04:22:08;;;;;;;2.47;2.00;;;12.40;96.70;;;;;;4932517;28;20432;-77
2021/04/22 04:24:38;;;;;;;2.65;2.10;;;12.30;96.70;;;;;;4927336;28;20452;-77
2021/04/22 04:27:08;;;;;;;2.25;2.05;;;12.30;96.70;;;;;;4941330;28;20051;-77
2021/04/22 04:29:38;;;;;;;4.20;2.00;;;12.20;96.70;;;;;;4951195;28;20055;-77
2021/04/22 04:32:08;;;;;;;2.63;1.92;;;12.20;96.70;;;;;;4949474;28;20432;-77
2021/04/22 04:34:37;;;;;;;2.90;2.38;;;12.20;96.70;;;;;;4945459;28;20535;-77
2021/04/22 04:37:06;;;;;;;2.38;1.88;;;12.20;96.70;;;;;;4947968;28;20101;-77
2021/04/22 04:39:35;;;;;;;2.50;2.22;;;12.20;96.70;;;;;;4944765;28;20117;-77
2021/04/22 04:42:05;;;;;;;5.53;2.13;;;12.30;96.70;;;;;;4950780;28;20410;-77
2021/04/22 04:44:34;;;;;;;2.97;2.15;;;12.30;96.70;;;;;;4945284;28;20430;-77
2021/04/22 04:47:04;;;;;;;2.75;2.13;;;12.30;96.70;;;;;;4948977;28;20066;-77
2021/04/22 04:49:36;;;;;;;2.03;1.80;;;12.30;96.70;;;;;;4947598;28;20113;-77
2021/04/22 04:52:05;;;;;;;4.13;2.10;;;12.30;96.70;;;;;;4948408;28;20062;-77
2021/04/22 04:54:33;;;;;;;3.20;2.42;;;12.40;96.70;;;;;;4944709;28;20057;-77
2021/04/22 04:57:02;;;;;;;3.25;2.92;;;12.40;96.70;;;;;;4961865;28;20109;-77
2021/04/22 04:59:31;;;;;;;2.90;2.33;;;12.40;96.70;;;;;;4967499;28;20043;-77
2021/04/22 05:02:00;;;;;;;2.45;2.25;;;12.40;96.70;;;;;;4966471;28;20617;-77
2021/04/22 05:04:29;;;;;;;5.15;3.00;;;12.40;96.70;;;;;;4964331;28;20488;-77
2021/04/22 05:07:34;;;;;;;2.63;2.42;;;12.40;96.70;;;;;;4971085;28;20531;-77
2021/04/22 05:10:02;;;;;;;3.67;3.00;;;12.40;96.70;;;;;;4929962;28;20058;-77
2021/04/22 05:12:30;;;;;;;4.03;2.83;;;12.40;96.70;;;;;;4969279;28;20385;-77
2021/04/22 05:14:59;;;;;;;3.25;2.95;;;12.50;96.70;;;;;;4961956;28;20097;-77
2021/04/22 05:17:26;;;;;;;2.90;2.60;;;12.50;96.70;;;;;;4976868;28;20145;-77
2021/04/22 05:19:54;;;;;;;4.47;3.55;;;12.40;96.70;;;;;;4963927;28;20050;-77
2021/04/22 05:22:22;;;;;;;3.90;3.22;;;12.50;96.70;;;;;;4967744;28;20150;-77
2021/04/22 05:24:50;;;;;;;3.80;3.30;;;12.40;96.70;;;;;;4945710;28;20051;-78
2021/04/22 05:27:18;;;;;;;5.20;3.90;;;12.40;96.70;;;;;;4966513;28;20047;-77
2021/04/22 05:29:46;;;;;;;6.78;3.55;;;12.40;96.70;;;;;;4958367;28;20057;-77
2021/04/22 05:32:15;;;;;;;5.38;3.83;;;12.40;96.70;;;;;;4965203;28;20039;-77
2021/04/22 05:34:44;;;;;;;4.95;3.80;;;12.50;96.70;;;;;;4947212;28;20058;-77
2021/04/22 05:37:18;;;;;;;7.80;4.07;;;12.50;96.70;;;;;;4944788;28;20043;-77
2021/04/22 05:39:46;;;;;;;5.47;4.15;;;12.60;96.70;;;;;;4961140;28;20038;-77
2021/04/22 05:42:14;;;;;;;5.20;3.85;;;12.60;96.70;;;;;;4972793;28;20050;-77
2021/04/22 05:44:44;;;;;;;5.28;4.20;;;12.60;96.70;;;;;;4953877;28;20046;-77
2021/04/22 05:47:12;;;;;;;5.43;3.95;;;12.70;96.70;;;;;;4966208;28;20157;-77
2021/04/22 05:49:41;;;;;;;4.60;3.55;;;12.70;96.70;;;;;;4958747;28;20054;-77
2021/04/22 05:52:09;;;;;;;5.45;3.72;;;12.70;96.70;;;;;;4968959;28;20086;-77
2021/04/22 05:54:37;;;;;;;4.40;3.92;;;12.70;96.70;;;;;;4973508;28;20150;-77
2021/04/22 05:57:05;;;;;;;5.20;3.58;;;12.70;96.70;;;;;;4961284;28;20921;-78
2021/04/22 05:59:33;;;;;;;5.18;4.05;;;12.70;96.70;;;;;;4964414;28;20044;-77
2021/04/22 06:02:00;;;;;;;4.75;4.03;;;12.80;96.70;;;;;;4963056;28;20134;-77
2021/04/22 06:04:28;;;;;;;6.85;3.95;;;12.90;96.70;;;;;;4973094;28;20058;-77
2021/04/22 06:06:57;;;;;;;4.60;3.55;;;12.90;96.70;;;;;;4944851;28;20050;-77
2021/04/22 06:09:25;;;;;;;4.55;3.78;;;12.90;96.70;;;;;;4975893;28;20112;-77
2021/04/22 06:11:53;;;;;;;5.82;4.18;;;13.00;96.70;;;;;;4968299;28;20098;-77
2021/04/22 06:14:21;;;;;;;4.82;3.80;;;13.00;96.70;;;;;;4979196;28;20033;-77
2021/04/22 06:16:48;;;;;;;5.45;4.25;;;13.10;96.70;;;;;;4953302;28;20420;-77
2021/04/22 06:19:16;;;;;;;7.55;3.70;;;13.10;96.70;;;;;;4974535;28;20310;-77
2021/04/22 06:21:44;;;;;;;6.47;4.00;;;13.00;96.70;;;;;;4971452;28;20042;-77
2021/04/22 06:24:13;;;;;;;6.30;4.40;;;13.00;96.70;;;;;;4972838;28;20486;-77
2021/04/22 06:26:40;;;;;;;5.60;4.10;;;13.10;96.70;;;;;;4969565;28;20137;-77
2021/04/22 06:29:10;;;;;;;4.35;3.95;;;13.20;96.70;;;;;;4971218;28;20046;-76
2021/04/22 06:31:38;;;;;;;5.05;4.15;;;13.30;96.70;;;;;;4971385;28;20423;-77
2021/04/22 06:34:06;;;;;;;4.78;4.28;;;13.30;96.70;;;;;;4967929;28;20142;-77
2021/04/22 06:36:34;;;;;;;4.80;4.05;;;13.30;96.70;;;;;;4970477;28;20558;-77
2021/04/22 06:39:02;;;;;;;7.05;4.55;;;13.40;96.70;;;;;;4974704;28;20042;-78
2021/04/22 06:41:31;;;;;;;5.95;4.45;;;13.40;96.70;;;;;;4976933;28;20527;-77
2021/04/22 06:43:59;;;;;;;4.63;4.20;;;13.40;96.70;;;;;;4979688;28;21202;-77
2021/04/22 06:46:26;;;;;;;5.80;4.38;;;13.50;96.70;;;;;;4964748;28;20047;-77
2021/04/22 06:48:54;;;;;;;5.13;4.43;;;13.40;96.70;;;;;;4967748;28;20199;-77
2021/04/22 06:51:23;;;;;;;6.30;4.50;;;13.50;96.70;;;;;;4967726;28;20039;-78
2021/04/22 06:53:51;;;;;;;5.85;4.68;;;13.50;96.70;;;;;;4970952;28;20685;-77
2021/04/22 06:56:19;;;;;;;6.10;4.40;;;13.50;96.70;;;;;;4963575;28;20082;-77
2021/04/22 06:58:47;;;;;;;5.03;4.50;;;13.60;96.70;;;;;;4980418;28;20425;-77
2021/04/22 07:01:15;;;;;;;5.82;4.90;;;13.70;96.70;;;;;;4988434;28;20508;-77
2021/04/22 07:03:43;;;;;;;8.15;5.40;;;13.70;96.70;;;;;;4950896;28;20310;-77
2021/04/22 07:06:12;;;;;;;6.05;4.90;;;13.70;96.70;;;;;;4962257;28;20046;-77
2021/04/22 07:08:41;;;;;;;5.78;5.10;;;13.70;96.70;;;;;;4965575;28;20404;-77
2021/04/22 07:11:09;;;;;;;5.90;5.30;;;13.80;96.70;;;;;;4967333;28;20034;-77
2021/04/22 07:13:37;;;;;;;5.05;4.53;;;13.90;96.70;;;;;;4969487;28;20124;-77
2021/04/22 07:16:06;;;;;;;6.95;4.85;;;13.80;96.70;;;;;;4963090;28;20492;-77
2021/04/22 07:18:33;;;;;;;5.65;5.00;;;13.90;96.70;;;;;;4968823;28;20057;-77
2021/04/22 07:21:01;;;;;;;5.90;5.07;;;14.00;96.70;;;;;;4968117;28;20055;-77
2021/04/22 07:23:29;;;;;;;5.88;5.10;;;14.10;96.70;;;;;;4975033;28;20125;-77
2021/04/22 07:25:57;;;;;;;7.05;5.40;;;14.10;96.70;;;;;;4969321;28;20243;-76
2021/04/22 07:28:25;;;;;;;6.25;5.57;;;14.10;96.70;;;;;;4968534;28;20046;-77
2021/04/22 07:30:58;;;;;;;8.27;5.32;;;14.20;96.70;;;;;;4971824;28;20086;-77
2021/04/22 07:33:27;;;;;;;8.23;5.40;;;14.20;96.70;;;;;;4965230;28;20106;-76
2021/04/22 07:35:54;;;;;;;8.90;5.65;;;14.20;96.70;;;;;;4990590;28;20504;-76
2021/04/22 07:38:22;;;;;;;7.30;5.40;;;14.30;96.70;;;;;;4969193;28;20053;-77
2021/04/22 07:40:50;;;;;;;7.68;5.75;;;14.40;96.70;;;;;;4970377;28;20047;-77
2021/04/22 07:43:22;;;;;;;6.60;5.90;;;14.40;96.70;;;;;;4968980;28;20222;-76
2021/04/22 07:45:50;;;;;;;7.70;5.55;;;14.40;96.70;;;;;;4977225;28;20038;-77
2021/04/22 07:48:18;;;;;;;6.85;6.07;;;14.50;96.70;;;;;;4967089;28;20412;-77
2021/04/22 07:50:47;;;;;;;7.00;5.63;;;14.50;96.70;;;;;;4962155;28;20030;-77
2021/04/22 07:53:14;;;;;;;8.93;6.70;;;14.60;96.70;;;;;;4966883;28;20050;-77
2021/04/22 07:55:44;;;;;;;6.97;5.95;;;14.50;96.70;;;;;;4972788;28;20046;-77
2021/04/22 07:58:13;;;;;;;6.50;5.85;;;14.60;96.70;;;;;;4968539;28;20345;-76
2021/04/22 08:00:41;;;;;;;5.78;5.18;;;14.70;96.70;;;;;;4970302;28;20046;-77
2021/04/22 08:03:12;;;;;;;6.60;4.70;;;14.70;96.70;;;;;;4976466;28;20067;-76
2021/04/22 08:05:46;;;;;;;5.50;4.90;;;14.80;96.70;;;;;;4962531;28;20476;-77
2021/04/22 08:08:14;;;;;;;5.35;4.80;;;14.90;96.70;;;;;;4958805;28;20051;-76
2021/04/22 08:10:44;;;;;;;5.28;4.45;;;14.90;96.70;;;;;;4969019;28;20057;-77
2021/04/22 08:13:14;;;;;;;6.45;4.45;;;15.00;96.70;;;;;;4967817;28;20050;-77
2021/04/22 08:15:44;;;;;;;5.15;4.65;;;15.10;96.70;;;;;;4967081;28;20039;-77
2021/04/22 08:18:12;;;;;;;5.43;3.83;;;15.10;96.70;;;;;;4970326;28;20053;-76
2021/04/22 08:20:40;;;;;;;6.38;4.38;;;15.20;96.70;;;;;;4981505;28;20061;-76
2021/04/22 08:23:10;;;;;;;4.57;4.03;;;15.30;96.70;;;;;;4956079;28;20046;-77
2021/04/22 08:25:41;;;;;;;5.63;4.35;;;15.30;96.70;;;;;;4963835;28;20121;-76
2021/04/22 08:28:12;;;;;;;6.35;4.15;;;15.50;96.70;;;;;;4961515;28;20035;-77
2021/04/22 08:30:45;;;;;;;5.90;3.70;;;15.60;96.70;;;;;;4969188;28;20415;-77
2021/04/22 08:33:14;;;;;;;5.10;3.80;;;15.60;96.70;;;;;;4968545;28;20498;-76
2021/04/22 08:35:43;;;;;;;4.22;3.45;;;15.60;96.70;;;;;;4956469;28;20047;-77
2021/04/22 08:38:12;;;;;;;5.03;3.33;;;15.60;96.70;;;;;;4970655;28;20054;-78
2021/04/22 08:40:40;;;;;;;3.60;3.30;;;15.60;96.70;;;;;;4971638;28;20513;-78
2021/04/22 08:43:09;;;;;;;4.10;3.70;;;15.60;96.70;;;;;;4969923;28;20043;-78
2021/04/22 08:45:38;;;;;;;4.82;3.38;;;15.50;96.70;;;;;;4960737;28;20130;-78
2021/04/22 08:48:06;;;;;;;3.80;3.17;;;15.60;96.70;;;;;;4962965;28;20045;-79
2021/04/22 08:50:35;;;;;;;6.30;3.40;;;15.60;96.70;;;;;;4966605;28;20055;-79
2021/04/22 08:53:05;;;;;;;3.65;3.03;;;15.60;96.70;;;;;;4974012;28;20059;-77
2021/04/22 08:55:35;;;;;;;4.38;3.67;;;15.70;96.70;;;;;;4946283;28;20073;-79
2021/04/22 08:58:05;;;;;;;4.57;3.28;;;15.70;96.70;;;;;;4973173;28;20042;-79
2021/04/22 09:00:39;;;;;;;4.78;3.53;;;15.70;96.70;;;;;;4947762;28;20302;-79
2021/04/22 09:03:07;;;;;;;4.50;3.45;;;15.80;96.70;;;;;;4963854;28;20414;-79
2021/04/22 09:05:35;;;;;;;4.22;3.42;;;15.80;96.70;;;;;;4962026;28;20046;-79
2021/04/22 09:08:04;;;;;;;3.78;3.38;;;15.80;96.70;;;;;;4974878;28;20137;-79
2021/04/22 09:10:32;;;;;;;4.68;3.50;;;15.70;96.70;;;;;;4961897;28;20133;-78
2021/04/22 09:13:04;;;;;;;3.65;3.35;;;15.80;96.70;;;;;;4988440;28;20073;-79
2021/04/22 09:15:35;;;;;;;3.85;3.45;;;15.80;96.70;;;;;;4964115;28;20187;-78
2021/04/22 09:18:05;;;;;;;5.78;3.40;;;15.90;96.70;;;;;;4971918;28;20138;-79
2021/04/22 09:20:36;;;;;;;5.38;3.47;;;15.90;96.70;;;;;;4950752;28;20047;-78
2021/04/22 09:23:29;;;;;;;5.70;3.55;;;16.00;96.70;;;;;;4968316;28;20611;-78
2021/04/22 09:26:00;;;;;;;4.82;3.67;;;16.20;96.70;;;;;;4956269;28;20058;-77
2021/04/22 09:28:36;;;;;;;4.88;3.80;;;16.30;96.70;;;;;;4973492;28;20039;-79
2021/04/22 09:31:05;;;;;;;4.35;3.72;;;16.20;96.70;;;;;;4966168;28;20065;-78
2021/04/22 09:33:35;;;;;;;3.83;3.50;;;16.20;96.70;;;;;;4978957;28;20070;-78
2021/04/22 09:36:09;;;;;;;4.38;3.97;;;16.40;96.70;;;;;;4970764;28;20044;-78
2021/04/22 09:38:38;;;;;;;5.90;3.50;;;16.50;96.70;;;;;;4967261;28;20042;-78
2021/04/22 09:41:24;;;;;;;4.88;3.88;;;16.60;96.70;;;;;;4974221;28;20396;-79
2021/04/22 09:44:03;;;;;;;4.15;3.75;;;16.60;96.70;;;;;;4978548;28;20120;-79
2021/04/22 09:46:31;;;;;;;4.40;3.80;;;16.80;96.70;;;;;;4949124;28;20034;-78
2021/04/22 09:48:59;;;;;;;6.30;3.95;;;16.70;96.50;;;;;;4976522;28;20070;-78
2021/04/22 09:51:30;;;;;;;4.82;4.32;;;16.70;96.70;;;;;;4949518;28;20138;-78
2021/04/22 09:54:10;;;;;;;4.35;3.95;;;16.80;96.70;;;;;;4953085;28;20133;-78
2021/04/22 09:56:45;;;;;;;4.63;4.22;;;16.90;96.50;;;;;;4964605;28;20601;-78
2021/04/22 09:59:17;;;;;;;5.53;4.80;;;16.90;95.20;;;;;;4958903;28;20039;-78
2021/04/22 10:01:47;;;;;;;6.30;4.90;;;16.80;95.80;;;;;;4962437;28;20050;-78
2021/04/22 10:04:16;;;;;;;4.65;3.95;;;17.10;96.50;;;;;;4968801;28;20034;-78
2021/04/22 10:06:45;;;;;;;5.50;3.60;;;17.30;94.90;;;;;;4967385;28;20588;-78
2021/04/22 10:09:13;;;;;;;4.40;3.33;;;17.30;92.60;;;;;;4970526;28;20526;-78
2021/04/22 10:11:45;;;;;;;3.97;3.40;;;17.40;93.10;;;;;;4946165;28;20046;-78
2021/04/22 10:14:13;;;;;;;6.05;3.92;;;17.30;93.00;;;;;;4965514;28;20050;-78
2021/04/22 10:16:42;;;;;;;4.95;3.50;;;17.30;93.70;;;;;;4974524;28;20046;-78
2021/04/22 10:19:20;;;;;;;4.65;3.38;;;17.40;93.30;;;;;;4964847;28;20063;-78
2021/04/22 10:21:47;;;;;;;5.72;3.90;;;17.60;94.20;;;;;;4961426;28;20471;-78
2021/04/22 10:24:15;;;;;;;5.32;3.80;;;17.90;92.60;;;;;;4942251;28;20039;-78
2021/04/22 10:26:44;;;;;;;4.82;3.90;;;18.10;92.30;;;;;;4961809;28;20051;-78
2021/04/22 10:29:13;;;;;;;4.07;3.50;;;18.30;91.80;;;;;;4969887;28;20058;-78
2021/04/22 10:31:41;;;;;;;3.72;3.42;;;18.30;91.00;;;;;;4944268;28;20101;-79
2021/04/22 10:34:09;;;;;;;4.28;3.88;;;18.40;91.00;;;;;;4968263;28;20566;-78
2021/04/22 10:36:38;;;;;;;3.35;3.05;;;18.60;90.60;;;;;;4963408;28;20050;-77
2021/04/22 10:39:06;;;;;;;5.38;3.55;;;18.60;89.70;;;;;;4982667;28;20050;-79
2021/04/22 10:41:35;;;;;;;4.07;3.45;;;18.60;89.40;;;;;;4968618;28;20046;-79
2021/04/22 10:44:05;;;;;;;4.40;3.55;;;18.70;88.80;;;;;;4971242;28;20045;-78
2021/04/22 10:46:37;;;;;;;3.85;3.42;;;19.00;89.40;;;;;;4964052;28;20489;-79
2021/04/22 10:49:05;;;;;;;6.28;3.72;;;19.20;88.30;;;;;;4981196;28;20047;-77
2021/04/22 10:51:34;;;;;;;3.75;3.45;;;19.20;87.40;;;;;;4965035;28;20073;-77
2021/04/22 10:54:03;;;;;;;3.58;3.10;;;19.20;87.90;;;;;;4957395;28;20869;-78
2021/04/22 10:56:31;;;;;;;3.63;3.13;;;19.20;86.30;;;;;;4963414;28;20047;-77
2021/04/22 10:58:58;;;;;;;4.05;3.35;;;19.50;86.90;;;;;;4983166;28;20082;-78
2021/04/22 11:01:36;;;;;;;4.55;3.40;;;19.80;85.40;;;;;;4969084;28;20073;-78
2021/04/22 11:04:07;;;;;;;3.65;2.97;;;20.10;85.50;;;;;;4955837;28;20665;-78
2021/04/22 11:06:38;;;;;;;3.15;2.70;;;20.20;84.60;;;;;;4971644;28;20165;-77
2021/04/22 11:09:21;;;;;;;4.32;3.10;;;20.50;83.10;;;;;;4969814;28;20153;-78
2021/04/22 11:11:58;;;;;;;3.65;2.90;;;20.30;83.00;;;;;;4972118;28;20077;-78
2021/04/22 11:14:41;;;;;;;3.92;3.08;;;20.00;83.80;;;;;;4969378;28;20482;-78
2021/04/22 11:17:11;;;;;;;3.00;2.70;;;20.00;83.90;;;;;;4973295;28;20046;-78
2021/04/22 11:19:41;;;;;;;2.72;2.40;;;20.20;83.00;;;;;;4965913;28;20139;-78
2021/04/22 11:22:16;;;;;;;3.20;2.53;;;20.50;81.20;;;;;;4975467;28;20076;-77
2021/04/22 11:24:51;;;;;;;2.45;1.90;;;20.70;79.70;;;;;;4965768;28;20058;-78
2021/04/22 11:27:20;;;;;;;3.13;2.22;;;20.80;80.70;;;;;;4968537;28;20526;-78
2021/04/22 11:29:50;;;;;;;2.28;2.00;;;20.70;79.30;;;;;;4970339;28;20058;-78
2021/04/22 11:32:27;;;;;;;2.03;1.63;;;20.90;79.90;;;;;;4963308;28;20054;-78
2021/04/22 11:34:58;;;;;;;3.20;1.60;;;20.90;78.80;;;;;;4964244;28;20440;-77
2021/04/22 11:37:31;;;;;;;2.13;1.73;;;21.20;78.40;;;;;;4973344;28;20042;-77
2021/04/22 11:40:10;;;;;;;1.90;1.70;;;21.50;77.40;;;;;;4972132;28;20061;-77
2021/04/22 11:42:39;;;;;;;2.90;1.70;;;21.80;77.60;;;;;;4977400;28;20058;-77
2021/04/22 11:45:12;;;;;;;2.35;1.83;;;22.10;77.30;;;;;;4964109;28;20046;-78
2021/04/22 11:47:50;;;;;;;2.13;1.77;;;22.00;75.80;;;;;;4940546;28;20508;-78
2021/04/22 11:50:21;;;;;;;2.53;1.55;;;22.10;75.10;;;;;;4974882;28;20124;-78
2021/04/22 11:52:51;;;;;;;2.63;2.08;;;22.20;74.90;;;;;;4957268;28;20051;-78
2021/04/22 11:55:22;;;;;;;1.90;1.70;;;21.90;75.80;;;;;;4956443;28;20496;-77
2021/04/22 11:57:55;;;;;;;1.52;1.25;;;21.90;76.10;;;;;;4973191;28;20142;-78
2021/04/22 12:00:24;;;;;;;2.30;1.45;;;22.00;74.90;;;;;;4960622;28;20158;-78
2021/04/22 12:02:53;;;;;;;2.45;1.55;;;21.80;74.70;;;;;;4965454;28;20039;-78
2021/04/22 12:05:22;;;;;;;2.83;1.80;;;21.80;75.30;;;;;;4979509;28;20068;-78
2021/04/22 12:08:00;;;;;;;3.15;1.73;;;21.70;76.50;;;;;;4949271;28;20089;-78
2021/04/22 12:10:30;;;;;;;2.63;1.90;;;21.70;76.60;;;;;;4968964;28;20096;-78
2021/04/22 12:13:06;;;;;;;2.80;1.67;;;21.60;75.80;;;;;;4966375;28;20069;-79
2021/04/22 12:15:36;;;;;;;2.03;1.80;;;21.50;76.30;;;;;;4965677;28;20551;-78
2021/04/22 12:18:08;;;;;;;2.10;1.90;;;21.50;77.00;;;;;;4967798;28;20046;-78
2021/04/22 12:20:36;;;;;;;1.83;1.70;;;21.60;76.40;;;;;;4968941;28;20043;-78
2021/04/22 12:23:05;;;;;;;2.05;1.85;;;22.00;76.60;;;;;;4969182;28;20040;-78
2021/04/22 12:25:32;;;;;;;3.08;2.03;;;21.60;76.50;;;;;;4972502;28;20536;-78
2021/04/22 12:28:05;;;;;;;1.63;1.52;;;21.50;77.20;;;;;;4948732;28;20047;-78
2021/04/22 12:30:35;;;;;;;3.60;2.20;;;21.50;77.40;;;;;;4966153;28;20054;-77
2021/04/22 12:33:09;;;;;;;2.80;2.10;;;21.50;76.90;;;;;;4966433;28;20035;-77
2021/04/22 12:35:38;;;;;;;2.63;1.88;;;21.50;77.40;;;;;;4968758;28;20039;-77
2021/04/22 12:38:16;;;;;;;2.55;2.03;;;21.40;78.10;;;;;;4969521;28;20039;-79
2021/04/22 12:40:53;;;;;;;2.45;2.15;;;21.10;78.20;;;;;;4979194;28;20186;-78
2021/04/22 12:43:20;;;;;;;2.28;1.90;;;20.70;78.30;;;;;;4969014;28;20043;-78
2021/04/22 12:45:48;;;;;;;2.03;1.83;;;20.80;78.60;;;;;;4973548;28;20049;-79
2021/04/22 12:48:17;;;;;;;2.42;2.22;;;21.20;78.10;;;;;;4967764;28;20038;-78
2021/04/22 12:50:47;;;;;;;2.80;2.00;;;21.30;77.90;;;;;;4970562;28;20050;-77
2021/04/22 12:53:18;;;;;;;3.45;2.25;;;21.70;77.00;;;;;;4949100;28;20050;-77
2021/04/22 12:55:47;;;;;;;2.47;2.10;;;22.10;76.20;;;;;;4964319;28;20093;-78
2021/04/22 12:58:16;;;;;;;4.55;2.47;;;22.30;76.20;;;;;;4954266;28;20145;-77
2021/04/22 13:00:46;;;;;;;2.80;1.88;;;22.50;74.80;;;;;;4971990;28;20058;-77
2021/04/22 13:03:19;;;;;;;3.50;2.20;;;22.10;75.50;;;;;;4972083;28;20042;-78
2021/04/22 13:05:51;;;;;;;2.50;2.30;;;21.80;76.30;;;;;;4962100;28;20129;-78
2021/04/22 13:08:22;;;;;;;2.30;2.10;;;21.20;76.70;;;;;;4986704;28;20047;-77
2021/04/22 13:10:52;;;;;;;2.58;2.08;;;21.00;77.60;;;;;;4962392;28;20530;-77